sensor_id;sensor_type;location;lat;lon;timestamp;P1;durP1;ratioP1;P2;durP2;ratioP2
41653;SDS011;68687;52.030;7.110;2023-12-14T00:01:16;42.58;;;18.67;;
41653;SDS011;68687;52.030;7.110;2023-12-14T00:03:42;40.90;;;18.60;;
41653;SDS011;68687;52.030;7.110;2023-12-14T00:06:09;41.33;;;18.77;;
41653;SDS011;68687;52.030;7.110;2023-12-14T00:08:38;39.97;;;19.70;;
41653;SDS011;68687;52.030;7.110;2023-12-14T00:11:07;40.47;;;19.40;;
41653;SDS011;68687;52.030;7.110;2023-12-14T00:13:33;42.47;;;18.88;;
41653;SDS011;68687;52.030;7.110;2023-12-14T00:15:58;37.03;;;18.73;;
41653;SDS011;68687;52.030;7.110;2023-12-14T00:18:23;40.55;;;17.95;;
41653;SDS011;68687;52.030;7.110;2023-12-14T00:20:49;38.67;;;17.67;;
41653;SDS011;68687;52.030;7.110;2023-12-14T00:23:14;43.28;;;18.05;;
41653;SDS011;68687;52.030;7.110;2023-12-14T00:25:39;42.75;;;19.00;;
41653;SDS011;68687;52.030;7.110;2023-12-14T00:28:04;43.08;;;20.13;;
41653;SDS011;68687;52.030;7.110;2023-12-14T00:30:30;36.90;;;17.23;;
41653;SDS011;68687;52.030;7.110;2023-12-14T00:32:55;44.80;;;20.27;;
41653;SDS011;68687;52.030;7.110;2023-12-14T00:35:20;34.05;;;17.42;;
41653;SDS011;68687;52.030;7.110;2023-12-14T00:37:45;47.30;;;20.15;;
41653;SDS011;68687;52.030;7.110;2023-12-14T00:40:11;41.72;;;19.27;;
41653;SDS011;68687;52.030;7.110;2023-12-14T00:42:36;40.55;;;18.73;;
41653;SDS011;68687;52.030;7.110;2023-12-14T00:45:02;38.65;;;18.63;;
41653;SDS011;68687;52.030;7.110;2023-12-14T00:47:27;39.25;;;18.58;;
41653;SDS011;68687;52.030;7.110;2023-12-14T00:49:52;46.38;;;21.35;;
41653;SDS011;68687;52.030;7.110;2023-12-14T00:52:18;47.67;;;21.30;;
41653;SDS011;68687;52.030;7.110;2023-12-14T00:54:43;43.25;;;21.83;;
41653;SDS011;68687;52.030;7.110;2023-12-14T00:57:09;46.28;;;22.10;;
41653;SDS011;68687;52.030;7.110;2023-12-14T00:59:34;49.95;;;22.35;;
41653;SDS011;68687;52.030;7.110;2023-12-14T01:01:59;52.00;;;24.80;;
41653;SDS011;68687;52.030;7.110;2023-12-14T01:04:31;53.13;;;24.58;;
41653;SDS011;68687;52.030;7.110;2023-12-14T01:06:59;52.92;;;24.38;;
41653;SDS011;68687;52.030;7.110;2023-12-14T01:09:24;52.47;;;23.45;;
41653;SDS011;68687;52.030;7.110;2023-12-14T01:11:49;51.08;;;23.02;;
41653;SDS011;68687;52.030;7.110;2023-12-14T01:14:15;47.47;;;22.70;;
41653;SDS011;68687;52.030;7.110;2023-12-14T01:16:40;57.83;;;24.67;;
41653;SDS011;68687;52.030;7.110;2023-12-14T01:19:06;54.83;;;23.63;;
41653;SDS011;68687;52.030;7.110;2023-12-14T01:21:31;61.20;;;25.98;;
41653;SDS011;68687;52.030;7.110;2023-12-14T01:23:57;54.65;;;24.77;;
41653;SDS011;68687;52.030;7.110;2023-12-14T01:26:22;61.33;;;25.85;;
41653;SDS011;68687;52.030;7.110;2023-12-14T01:28:48;61.78;;;27.13;;
41653;SDS011;68687;52.030;7.110;2023-12-14T01:31:13;64.18;;;27.42;;
41653;SDS011;68687;52.030;7.110;2023-12-14T01:33:38;58.60;;;25.75;;
41653;SDS011;68687;52.030;7.110;2023-12-14T01:36:04;65.95;;;27.70;;
41653;SDS011;68687;52.030;7.110;2023-12-14T01:38:29;57.53;;;25.38;;
41653;SDS011;68687;52.030;7.110;2023-12-14T01:40:54;51.13;;;24.02;;
41653;SDS011;68687;52.030;7.110;2023-12-14T01:43:21;54.03;;;24.33;;
41653;SDS011;68687;52.030;7.110;2023-12-14T01:45:46;59.60;;;24.17;;
41653;SDS011;68687;52.030;7.110;2023-12-14T01:48:11;55.67;;;24.73;;
41653;SDS011;68687;52.030;7.110;2023-12-14T01:50:37;60.00;;;25.42;;
41653;SDS011;68687;52.030;7.110;2023-12-14T01:53:03;55.88;;;23.88;;
41653;SDS011;68687;52.030;7.110;2023-12-14T01:55:34;54.95;;;23.23;;
41653;SDS011;68687;52.030;7.110;2023-12-14T01:57:59;55.50;;;23.45;;
41653;SDS011;68687;52.030;7.110;2023-12-14T02:00:35;53.95;;;25.25;;
41653;SDS011;68687;52.030;7.110;2023-12-14T02:03:02;52.85;;;22.73;;
41653;SDS011;68687;52.030;7.110;2023-12-14T02:05:31;45.17;;;22.02;;
41653;SDS011;68687;52.030;7.110;2023-12-14T02:07:56;46.63;;;21.05;;
41653;SDS011;68687;52.030;7.110;2023-12-14T02:10:25;46.97;;;21.25;;
41653;SDS011;68687;52.030;7.110;2023-12-14T02:12:50;51.15;;;22.17;;
41653;SDS011;68687;52.030;7.110;2023-12-14T02:15:16;50.03;;;23.30;;
41653;SDS011;68687;52.030;7.110;2023-12-14T02:17:41;50.33;;;21.75;;
41653;SDS011;68687;52.030;7.110;2023-12-14T02:20:06;49.22;;;22.73;;
41653;SDS011;68687;52.030;7.110;2023-12-14T02:22:35;46.55;;;21.40;;
41653;SDS011;68687;52.030;7.110;2023-12-14T02:25:17;51.42;;;24.27;;
41653;SDS011;68687;52.030;7.110;2023-12-14T02:27:42;57.03;;;25.23;;
41653;SDS011;68687;52.030;7.110;2023-12-14T02:30:08;56.05;;;26.23;;
41653;SDS011;68687;52.030;7.110;2023-12-14T02:32:34;53.67;;;24.80;;
41653;SDS011;68687;52.030;7.110;2023-12-14T02:34:59;58.17;;;26.48;;
41653;SDS011;68687;52.030;7.110;2023-12-14T02:37:28;60.95;;;26.83;;
41653;SDS011;68687;52.030;7.110;2023-12-14T02:39:59;62.03;;;26.27;;
41653;SDS011;68687;52.030;7.110;2023-12-14T02:42:28;55.83;;;26.58;;
41653;SDS011;68687;52.030;7.110;2023-12-14T02:44:54;51.83;;;24.27;;
41653;SDS011;68687;52.030;7.110;2023-12-14T02:47:19;53.95;;;24.17;;
41653;SDS011;68687;52.030;7.110;2023-12-14T02:49:45;55.45;;;25.20;;
41653;SDS011;68687;52.030;7.110;2023-12-14T02:52:10;54.67;;;25.38;;
41653;SDS011;68687;52.030;7.110;2023-12-14T02:54:36;53.55;;;23.90;;
41653;SDS011;68687;52.030;7.110;2023-12-14T02:57:03;48.67;;;22.58;;
41653;SDS011;68687;52.030;7.110;2023-12-14T02:59:29;51.13;;;22.83;;
41653;SDS011;68687;52.030;7.110;2023-12-14T03:01:54;47.72;;;21.35;;
41653;SDS011;68687;52.030;7.110;2023-12-14T03:04:19;46.13;;;20.35;;
41653;SDS011;68687;52.030;7.110;2023-12-14T03:06:45;41.17;;;20.42;;
41653;SDS011;68687;52.030;7.110;2023-12-14T03:09:10;43.17;;;20.63;;
41653;SDS011;68687;52.030;7.110;2023-12-14T03:11:35;41.10;;;19.55;;
41653;SDS011;68687;52.030;7.110;2023-12-14T03:14:01;41.95;;;19.30;;
41653;SDS011;68687;52.030;7.110;2023-12-14T03:16:26;46.80;;;19.77;;
41653;SDS011;68687;52.030;7.110;2023-12-14T03:18:51;41.75;;;19.38;;
41653;SDS011;68687;52.030;7.110;2023-12-14T03:21:21;42.30;;;19.38;;
41653;SDS011;68687;52.030;7.110;2023-12-14T03:23:46;41.03;;;20.52;;
41653;SDS011;68687;52.030;7.110;2023-12-14T03:26:11;40.25;;;19.67;;
41653;SDS011;68687;52.030;7.110;2023-12-14T03:28:37;46.88;;;22.40;;
41653;SDS011;68687;52.030;7.110;2023-12-14T03:31:02;42.72;;;21.35;;
41653;SDS011;68687;52.030;7.110;2023-12-14T03:33:28;41.03;;;20.85;;
41653;SDS011;68687;52.030;7.110;2023-12-14T03:35:53;54.72;;;25.60;;
41653;SDS011;68687;52.030;7.110;2023-12-14T03:38:19;51.38;;;24.02;;
41653;SDS011;68687;52.030;7.110;2023-12-14T03:40:44;50.17;;;23.02;;
41653;SDS011;68687;52.030;7.110;2023-12-14T03:43:12;50.88;;;23.83;;
41653;SDS011;68687;52.030;7.110;2023-12-14T03:45:41;54.42;;;23.05;;
41653;SDS011;68687;52.030;7.110;2023-12-14T03:48:06;47.13;;;23.50;;
41653;SDS011;68687;52.030;7.110;2023-12-14T03:50:31;51.30;;;23.63;;
41653;SDS011;68687;52.030;7.110;2023-12-14T03:52:57;53.70;;;24.90;;
41653;SDS011;68687;52.030;7.110;2023-12-14T03:55:23;55.22;;;25.83;;
41653;SDS011;68687;52.030;7.110;2023-12-14T03:57:48;47.17;;;23.52;;
41653;SDS011;68687;52.030;7.110;2023-12-14T04:00:13;60.38;;;28.00;;
41653;SDS011;68687;52.030;7.110;2023-12-14T04:02:39;58.95;;;26.17;;
41653;SDS011;68687;52.030;7.110;2023-12-14T04:05:08;61.53;;;27.58;;
41653;SDS011;68687;52.030;7.110;2023-12-14T04:07:43;60.42;;;27.83;;
41653;SDS011;68687;52.030;7.110;2023-12-14T04:10:09;63.33;;;27.85;;
41653;SDS011;68687;52.030;7.110;2023-12-14T04:12:35;61.75;;;27.38;;
41653;SDS011;68687;52.030;7.110;2023-12-14T04:15:01;59.92;;;27.50;;
41653;SDS011;68687;52.030;7.110;2023-12-14T04:17:27;58.40;;;28.95;;
41653;SDS011;68687;52.030;7.110;2023-12-14T04:19:53;57.38;;;27.83;;
41653;SDS011;68687;52.030;7.110;2023-12-14T04:22:18;55.75;;;26.35;;
41653;SDS011;68687;52.030;7.110;2023-12-14T04:24:43;51.90;;;23.83;;
41653;SDS011;68687;52.030;7.110;2023-12-14T04:27:09;52.42;;;24.92;;
41653;SDS011;68687;52.030;7.110;2023-12-14T04:29:34;49.38;;;24.05;;
41653;SDS011;68687;52.030;7.110;2023-12-14T04:31:59;48.30;;;23.00;;
41653;SDS011;68687;52.030;7.110;2023-12-14T04:34:25;44.85;;;23.33;;
41653;SDS011;68687;52.030;7.110;2023-12-14T04:36:50;46.75;;;22.88;;
41653;SDS011;68687;52.030;7.110;2023-12-14T04:39:15;41.83;;;21.10;;
41653;SDS011;68687;52.030;7.110;2023-12-14T04:41:41;40.95;;;21.55;;
41653;SDS011;68687;52.030;7.110;2023-12-14T04:44:07;44.92;;;22.52;;
41653;SDS011;68687;52.030;7.110;2023-12-14T04:46:35;40.92;;;21.17;;
41653;SDS011;68687;52.030;7.110;2023-12-14T04:49:00;42.50;;;22.83;;
41653;SDS011;68687;52.030;7.110;2023-12-14T04:51:25;42.35;;;22.17;;
41653;SDS011;68687;52.030;7.110;2023-12-14T04:53:51;44.45;;;22.70;;
41653;SDS011;68687;52.030;7.110;2023-12-14T04:56:16;40.10;;;21.83;;
41653;SDS011;68687;52.030;7.110;2023-12-14T04:58:41;44.50;;;22.52;;
41653;SDS011;68687;52.030;7.110;2023-12-14T05:01:07;44.10;;;22.67;;
41653;SDS011;68687;52.030;7.110;2023-12-14T05:03:35;47.38;;;23.20;;
41653;SDS011;68687;52.030;7.110;2023-12-14T05:06:01;47.20;;;24.02;;
41653;SDS011;68687;52.030;7.110;2023-12-14T05:08:26;52.22;;;24.60;;
41653;SDS011;68687;52.030;7.110;2023-12-14T05:10:51;48.92;;;25.63;;
41653;SDS011;68687;52.030;7.110;2023-12-14T05:13:17;50.55;;;26.17;;
41653;SDS011;68687;52.030;7.110;2023-12-14T05:15:42;58.15;;;27.15;;
41653;SDS011;68687;52.030;7.110;2023-12-14T05:18:10;52.83;;;27.13;;
41653;SDS011;68687;52.030;7.110;2023-12-14T05:20:36;58.10;;;28.20;;
41653;SDS011;68687;52.030;7.110;2023-12-14T05:23:01;56.33;;;28.20;;
41653;SDS011;68687;52.030;7.110;2023-12-14T05:25:27;58.95;;;28.30;;
41653;SDS011;68687;52.030;7.110;2023-12-14T05:27:52;57.22;;;26.88;;
41653;SDS011;68687;52.030;7.110;2023-12-14T05:30:17;54.60;;;26.10;;
41653;SDS011;68687;52.030;7.110;2023-12-14T05:32:43;56.35;;;26.63;;
41653;SDS011;68687;52.030;7.110;2023-12-14T05:35:09;56.30;;;27.15;;
41653;SDS011;68687;52.030;7.110;2023-12-14T05:37:34;55.78;;;28.23;;
41653;SDS011;68687;52.030;7.110;2023-12-14T05:40:03;56.70;;;27.52;;
41653;SDS011;68687;52.030;7.110;2023-12-14T05:42:28;54.22;;;26.33;;
41653;SDS011;68687;52.030;7.110;2023-12-14T05:44:54;61.83;;;28.88;;
41653;SDS011;68687;52.030;7.110;2023-12-14T05:47:19;57.28;;;27.65;;
41653;SDS011;68687;52.030;7.110;2023-12-14T05:49:47;60.33;;;27.98;;
41653;SDS011;68687;52.030;7.110;2023-12-14T05:52:13;58.50;;;26.23;;
41653;SDS011;68687;52.030;7.110;2023-12-14T05:54:38;60.35;;;27.88;;
41653;SDS011;68687;52.030;7.110;2023-12-14T05:57:09;56.83;;;26.95;;
41653;SDS011;68687;52.030;7.110;2023-12-14T05:59:37;49.13;;;25.92;;
41653;SDS011;68687;52.030;7.110;2023-12-14T06:02:03;53.28;;;27.52;;
41653;SDS011;68687;52.030;7.110;2023-12-14T06:04:29;55.20;;;26.63;;
41653;SDS011;68687;52.030;7.110;2023-12-14T06:06:55;53.92;;;27.05;;
41653;SDS011;68687;52.030;7.110;2023-12-14T06:09:20;51.75;;;26.35;;
41653;SDS011;68687;52.030;7.110;2023-12-14T06:11:49;48.03;;;24.63;;
41653;SDS011;68687;52.030;7.110;2023-12-14T06:14:16;51.15;;;26.88;;
41653;SDS011;68687;52.030;7.110;2023-12-14T06:16:41;49.25;;;26.05;;
41653;SDS011;68687;52.030;7.110;2023-12-14T06:19:06;48.58;;;24.85;;
41653;SDS011;68687;52.030;7.110;2023-12-14T06:21:31;59.45;;;28.73;;
41653;SDS011;68687;52.030;7.110;2023-12-14T06:23:57;57.35;;;27.65;;
41653;SDS011;68687;52.030;7.110;2023-12-14T06:26:24;55.08;;;27.00;;
41653;SDS011;68687;52.030;7.110;2023-12-14T06:28:49;57.53;;;25.88;;
41653;SDS011;68687;52.030;7.110;2023-12-14T06:31:15;53.50;;;25.73;;
41653;SDS011;68687;52.030;7.110;2023-12-14T06:33:40;49.20;;;24.40;;
41653;SDS011;68687;52.030;7.110;2023-12-14T06:36:09;66.35;;;28.33;;
41653;SDS011;68687;52.030;7.110;2023-12-14T06:38:37;48.25;;;25.38;;
41653;SDS011;68687;52.030;7.110;2023-12-14T06:41:03;47.50;;;23.95;;
41653;SDS011;68687;52.030;7.110;2023-12-14T06:43:29;52.55;;;26.40;;
41653;SDS011;68687;52.030;7.110;2023-12-14T06:45:54;52.15;;;26.38;;
41653;SDS011;68687;52.030;7.110;2023-12-14T06:48:19;50.70;;;25.00;;
41653;SDS011;68687;52.030;7.110;2023-12-14T06:50:45;46.90;;;23.48;;
41653;SDS011;68687;52.030;7.110;2023-12-14T06:53:10;49.35;;;25.02;;
41653;SDS011;68687;52.030;7.110;2023-12-14T06:55:35;43.33;;;22.35;;
41653;SDS011;68687;52.030;7.110;2023-12-14T06:58:01;47.83;;;22.98;;
41653;SDS011;68687;52.030;7.110;2023-12-14T07:00:26;45.70;;;22.15;;
41653;SDS011;68687;52.030;7.110;2023-12-14T07:02:55;44.67;;;21.40;;
41653;SDS011;68687;52.030;7.110;2023-12-14T07:05:20;46.28;;;21.58;;
41653;SDS011;68687;52.030;7.110;2023-12-14T07:07:46;44.25;;;22.13;;
41653;SDS011;68687;52.030;7.110;2023-12-14T07:10:11;49.33;;;24.52;;
41653;SDS011;68687;52.030;7.110;2023-12-14T07:12:36;46.53;;;23.40;;
41653;SDS011;68687;52.030;7.110;2023-12-14T07:15:01;45.55;;;23.05;;
41653;SDS011;68687;52.030;7.110;2023-12-14T07:17:27;52.75;;;23.85;;
41653;SDS011;68687;52.030;7.110;2023-12-14T07:19:52;47.17;;;23.45;;
41653;SDS011;68687;52.030;7.110;2023-12-14T07:22:18;49.47;;;25.60;;
41653;SDS011;68687;52.030;7.110;2023-12-14T07:24:43;49.13;;;24.10;;
41653;SDS011;68687;52.030;7.110;2023-12-14T07:27:09;51.78;;;25.88;;
41653;SDS011;68687;52.030;7.110;2023-12-14T07:29:34;45.60;;;23.38;;
41653;SDS011;68687;52.030;7.110;2023-12-14T07:31:59;49.17;;;23.92;;
41653;SDS011;68687;52.030;7.110;2023-12-14T07:34:24;56.28;;;26.25;;
41653;SDS011;68687;52.030;7.110;2023-12-14T07:36:53;56.90;;;25.08;;
41653;SDS011;68687;52.030;7.110;2023-12-14T07:39:18;58.00;;;26.75;;
41653;SDS011;68687;52.030;7.110;2023-12-14T07:41:46;49.63;;;25.20;;
41653;SDS011;68687;52.030;7.110;2023-12-14T07:44:11;50.28;;;25.08;;
41653;SDS011;68687;52.030;7.110;2023-12-14T07:46:37;60.38;;;26.58;;
41653;SDS011;68687;52.030;7.110;2023-12-14T07:49:12;60.40;;;27.10;;
41653;SDS011;68687;52.030;7.110;2023-12-14T07:51:40;60.28;;;27.02;;
41653;SDS011;68687;52.030;7.110;2023-12-14T07:54:06;54.83;;;26.05;;
41653;SDS011;68687;52.030;7.110;2023-12-14T07:56:31;63.00;;;26.42;;
41653;SDS011;68687;52.030;7.110;2023-12-14T07:58:58;55.00;;;25.73;;
41653;SDS011;68687;52.030;7.110;2023-12-14T08:01:26;55.45;;;26.92;;
41653;SDS011;68687;52.030;7.110;2023-12-14T08:03:51;55.10;;;25.88;;
41653;SDS011;68687;52.030;7.110;2023-12-14T08:06:17;62.90;;;25.63;;
41653;SDS011;68687;52.030;7.110;2023-12-14T08:08:42;59.95;;;26.63;;
41653;SDS011;68687;52.030;7.110;2023-12-14T08:11:08;57.13;;;25.92;;
41653;SDS011;68687;52.030;7.110;2023-12-14T08:13:33;58.50;;;26.20;;
41653;SDS011;68687;52.030;7.110;2023-12-14T08:16:02;52.38;;;25.27;;
41653;SDS011;68687;52.030;7.110;2023-12-14T08:18:27;52.58;;;24.30;;
41653;SDS011;68687;52.030;7.110;2023-12-14T08:20:53;54.97;;;27.70;;
41653;SDS011;68687;52.030;7.110;2023-12-14T08:23:20;51.25;;;24.80;;
41653;SDS011;68687;52.030;7.110;2023-12-14T08:25:45;47.53;;;23.17;;
41653;SDS011;68687;52.030;7.110;2023-12-14T08:28:14;47.85;;;23.27;;
41653;SDS011;68687;52.030;7.110;2023-12-14T08:30:39;50.42;;;23.20;;
41653;SDS011;68687;52.030;7.110;2023-12-14T08:33:08;46.42;;;24.42;;
41653;SDS011;68687;52.030;7.110;2023-12-14T08:35:33;44.53;;;22.85;;
41653;SDS011;68687;52.030;7.110;2023-12-14T08:37:59;46.72;;;21.98;;
41653;SDS011;68687;52.030;7.110;2023-12-14T08:40:24;43.85;;;21.52;;
41653;SDS011;68687;52.030;7.110;2023-12-14T08:42:49;41.17;;;22.02;;
41653;SDS011;68687;52.030;7.110;2023-12-14T08:45:15;42.20;;;21.27;;
41653;SDS011;68687;52.030;7.110;2023-12-14T08:47:40;42.95;;;20.38;;
41653;SDS011;68687;52.030;7.110;2023-12-14T08:50:05;41.97;;;22.02;;
41653;SDS011;68687;52.030;7.110;2023-12-14T08:52:32;41.85;;;21.35;;
41653;SDS011;68687;52.030;7.110;2023-12-14T08:54:58;39.90;;;21.67;;
41653;SDS011;68687;52.030;7.110;2023-12-14T08:57:23;43.17;;;22.83;;
41653;SDS011;68687;52.030;7.110;2023-12-14T08:59:51;39.45;;;20.08;;
41653;SDS011;68687;52.030;7.110;2023-12-14T09:02:17;42.30;;;21.33;;
41653;SDS011;68687;52.030;7.110;2023-12-14T09:04:42;36.25;;;18.17;;
41653;SDS011;68687;52.030;7.110;2023-12-14T09:07:07;42.85;;;21.17;;
41653;SDS011;68687;52.030;7.110;2023-12-14T09:09:33;38.45;;;19.08;;
41653;SDS011;68687;52.030;7.110;2023-12-14T09:11:58;38.80;;;19.23;;
41653;SDS011;68687;52.030;7.110;2023-12-14T09:14:23;35.13;;;18.83;;
41653;SDS011;68687;52.030;7.110;2023-12-14T09:16:49;41.60;;;20.27;;
41653;SDS011;68687;52.030;7.110;2023-12-14T09:19:14;40.58;;;20.48;;
41653;SDS011;68687;52.030;7.110;2023-12-14T09:21:45;41.25;;;21.67;;
41653;SDS011;68687;52.030;7.110;2023-12-14T09:24:11;43.47;;;21.65;;
41653;SDS011;68687;52.030;7.110;2023-12-14T09:26:36;46.03;;;22.30;;
41653;SDS011;68687;52.030;7.110;2023-12-14T09:29:01;43.05;;;24.02;;
41653;SDS011;68687;52.030;7.110;2023-12-14T09:31:27;37.45;;;20.63;;
41653;SDS011;68687;52.030;7.110;2023-12-14T09:33:53;38.20;;;21.70;;
41653;SDS011;68687;52.030;7.110;2023-12-14T09:36:18;42.03;;;20.80;;
41653;SDS011;68687;52.030;7.110;2023-12-14T09:38:44;38.50;;;21.45;;
41653;SDS011;68687;52.030;7.110;2023-12-14T09:41:10;42.10;;;21.38;;
41653;SDS011;68687;52.030;7.110;2023-12-14T09:43:35;38.80;;;22.02;;
41653;SDS011;68687;52.030;7.110;2023-12-14T09:46:00;39.03;;;21.33;;
41653;SDS011;68687;52.030;7.110;2023-12-14T09:48:26;35.30;;;19.65;;
41653;SDS011;68687;52.030;7.110;2023-12-14T09:50:56;36.25;;;19.95;;
41653;SDS011;68687;52.030;7.110;2023-12-14T09:53:21;40.35;;;22.38;;
41653;SDS011;68687;52.030;7.110;2023-12-14T09:55:47;39.58;;;20.02;;
41653;SDS011;68687;52.030;7.110;2023-12-14T09:58:12;39.05;;;21.35;;
41653;SDS011;68687;52.030;7.110;2023-12-14T10:00:38;38.13;;;20.02;;
41653;SDS011;68687;52.030;7.110;2023-12-14T10:05:52;43.92;;;22.73;;
41653;SDS011;68687;52.030;7.110;2023-12-14T10:08:18;40.50;;;21.55;;
41653;SDS011;68687;52.030;7.110;2023-12-14T10:10:46;42.22;;;22.35;;
41653;SDS011;68687;52.030;7.110;2023-12-14T10:13:14;40.22;;;21.83;;
41653;SDS011;68687;52.030;7.110;2023-12-14T10:15:43;38.17;;;20.70;;
41653;SDS011;68687;52.030;7.110;2023-12-14T10:18:09;36.67;;;19.13;;
41653;SDS011;68687;52.030;7.110;2023-12-14T10:20:35;36.85;;;21.67;;
41653;SDS011;68687;52.030;7.110;2023-12-14T10:23:02;38.60;;;20.50;;
41653;SDS011;68687;52.030;7.110;2023-12-14T10:25:32;38.30;;;21.38;;
41653;SDS011;68687;52.030;7.110;2023-12-14T10:27:57;36.88;;;21.35;;
41653;SDS011;68687;52.030;7.110;2023-12-14T10:30:24;40.20;;;21.35;;
41653;SDS011;68687;52.030;7.110;2023-12-14T10:32:50;40.60;;;22.63;;
41653;SDS011;68687;52.030;7.110;2023-12-14T10:35:16;41.53;;;21.65;;
41653;SDS011;68687;52.030;7.110;2023-12-14T10:37:44;41.75;;;23.08;;
41653;SDS011;68687;52.030;7.110;2023-12-14T10:40:13;39.30;;;22.65;;
41653;SDS011;68687;52.030;7.110;2023-12-14T10:42:39;40.03;;;22.73;;
41653;SDS011;68687;52.030;7.110;2023-12-14T10:45:08;47.28;;;23.15;;
41653;SDS011;68687;52.030;7.110;2023-12-14T10:47:37;44.63;;;23.90;;
41653;SDS011;68687;52.030;7.110;2023-12-14T10:50:13;44.78;;;23.50;;
41653;SDS011;68687;52.030;7.110;2023-12-14T10:52:38;46.42;;;25.02;;
41653;SDS011;68687;52.030;7.110;2023-12-14T10:55:10;46.30;;;24.52;;
41653;SDS011;68687;52.030;7.110;2023-12-14T10:57:41;46.13;;;23.52;;
41653;SDS011;68687;52.030;7.110;2023-12-14T11:00:06;42.10;;;23.63;;
41653;SDS011;68687;52.030;7.110;2023-12-14T11:02:40;41.55;;;23.02;;
41653;SDS011;68687;52.030;7.110;2023-12-14T11:05:08;39.63;;;22.17;;
41653;SDS011;68687;52.030;7.110;2023-12-14T11:07:52;47.38;;;24.77;;
41653;SDS011;68687;52.030;7.110;2023-12-14T11:10:23;41.55;;;23.45;;
41653;SDS011;68687;52.030;7.110;2023-12-14T11:13:00;45.10;;;24.60;;
41653;SDS011;68687;52.030;7.110;2023-12-14T11:15:29;44.38;;;23.73;;
41653;SDS011;68687;52.030;7.110;2023-12-14T11:20:39;44.95;;;24.55;;
41653;SDS011;68687;52.030;7.110;2023-12-14T11:23:15;46.25;;;24.77;;
41653;SDS011;68687;52.030;7.110;2023-12-14T11:25:53;38.55;;;21.40;;
41653;SDS011;68687;52.030;7.110;2023-12-14T11:28:19;47.67;;;24.85;;
41653;SDS011;68687;52.030;7.110;2023-12-14T11:30:45;43.83;;;24.30;;
41653;SDS011;68687;52.030;7.110;2023-12-14T11:33:11;48.63;;;24.45;;
41653;SDS011;68687;52.030;7.110;2023-12-14T11:35:38;46.53;;;24.83;;
41653;SDS011;68687;52.030;7.110;2023-12-14T11:38:03;45.55;;;24.00;;
41653;SDS011;68687;52.030;7.110;2023-12-14T11:40:35;46.53;;;25.13;;
41653;SDS011;68687;52.030;7.110;2023-12-14T11:43:03;47.97;;;26.10;;
41653;SDS011;68687;52.030;7.110;2023-12-14T11:45:36;56.60;;;25.42;;
41653;SDS011;68687;52.030;7.110;2023-12-14T11:48:09;47.00;;;26.23;;
41653;SDS011;68687;52.030;7.110;2023-12-14T11:50:37;46.25;;;24.48;;
41653;SDS011;68687;52.030;7.110;2023-12-14T11:53:03;47.15;;;25.08;;
41653;SDS011;68687;52.030;7.110;2023-12-14T11:55:29;39.75;;;22.85;;
41653;SDS011;68687;52.030;7.110;2023-12-14T11:57:58;42.45;;;22.75;;
41653;SDS011;68687;52.030;7.110;2023-12-14T12:00:24;42.38;;;23.05;;
41653;SDS011;68687;52.030;7.110;2023-12-14T12:02:51;44.53;;;23.63;;
41653;SDS011;68687;52.030;7.110;2023-12-14T12:05:16;45.20;;;22.65;;
41653;SDS011;68687;52.030;7.110;2023-12-14T12:07:44;73.43;;;39.42;;
41653;SDS011;68687;52.030;7.110;2023-12-14T12:10:10;54.80;;;28.52;;
41653;SDS011;68687;52.030;7.110;2023-12-14T12:12:36;45.78;;;25.30;;
41653;SDS011;68687;52.030;7.110;2023-12-14T12:15:02;41.92;;;22.52;;
41653;SDS011;68687;52.030;7.110;2023-12-14T12:17:28;42.05;;;23.40;;
41653;SDS011;68687;52.030;7.110;2023-12-14T12:19:53;44.70;;;24.35;;
41653;SDS011;68687;52.030;7.110;2023-12-14T12:22:18;45.75;;;23.40;;
41653;SDS011;68687;52.030;7.110;2023-12-14T12:24:44;40.42;;;22.42;;
41653;SDS011;68687;52.030;7.110;2023-12-14T12:27:09;41.90;;;23.10;;
41653;SDS011;68687;52.030;7.110;2023-12-14T12:29:34;42.72;;;22.67;;
41653;SDS011;68687;52.030;7.110;2023-12-14T12:32:00;41.88;;;23.17;;
41653;SDS011;68687;52.030;7.110;2023-12-14T12:34:28;42.55;;;21.63;;
41653;SDS011;68687;52.030;7.110;2023-12-14T12:36:54;38.03;;;21.95;;
41653;SDS011;68687;52.030;7.110;2023-12-14T12:39:24;36.53;;;21.33;;
41653;SDS011;68687;52.030;7.110;2023-12-14T12:41:52;37.50;;;20.38;;
41653;SDS011;68687;52.030;7.110;2023-12-14T12:44:17;36.08;;;18.25;;
41653;SDS011;68687;52.030;7.110;2023-12-14T12:46:42;36.10;;;20.65;;
41653;SDS011;68687;52.030;7.110;2023-12-14T12:49:08;37.92;;;20.98;;
41653;SDS011;68687;52.030;7.110;2023-12-14T12:51:33;38.28;;;21.33;;
41653;SDS011;68687;52.030;7.110;2023-12-14T12:54:03;38.15;;;20.73;;
41653;SDS011;68687;52.030;7.110;2023-12-14T12:56:28;39.30;;;21.40;;
41653;SDS011;68687;52.030;7.110;2023-12-14T12:58:54;37.15;;;19.02;;
41653;SDS011;68687;52.030;7.110;2023-12-14T13:01:26;32.25;;;18.27;;
41653;SDS011;68687;52.030;7.110;2023-12-14T13:03:52;34.22;;;19.23;;
41653;SDS011;68687;52.030;7.110;2023-12-14T13:06:19;35.47;;;19.90;;
41653;SDS011;68687;52.030;7.110;2023-12-14T13:08:45;33.97;;;18.30;;
41653;SDS011;68687;52.030;7.110;2023-12-14T13:11:13;39.67;;;21.50;;
41653;SDS011;68687;52.030;7.110;2023-12-14T13:13:39;35.78;;;20.35;;
41653;SDS011;68687;52.030;7.110;2023-12-14T13:16:08;41.53;;;20.95;;
41653;SDS011;68687;52.030;7.110;2023-12-14T13:18:33;43.05;;;23.02;;
41653;SDS011;68687;52.030;7.110;2023-12-14T13:21:01;37.95;;;20.83;;
41653;SDS011;68687;52.030;7.110;2023-12-14T13:23:27;39.30;;;21.52;;
41653;SDS011;68687;52.030;7.110;2023-12-14T13:25:52;38.17;;;21.08;;
41653;SDS011;68687;52.030;7.110;2023-12-14T13:28:17;37.78;;;20.63;;
41653;SDS011;68687;52.030;7.110;2023-12-14T13:30:42;37.63;;;19.73;;
41653;SDS011;68687;52.030;7.110;2023-12-14T13:33:08;38.95;;;20.67;;
41653;SDS011;68687;52.030;7.110;2023-12-14T13:35:36;37.60;;;20.55;;
41653;SDS011;68687;52.030;7.110;2023-12-14T13:38:02;33.35;;;19.02;;
41653;SDS011;68687;52.030;7.110;2023-12-14T13:40:27;33.92;;;18.15;;
41653;SDS011;68687;52.030;7.110;2023-12-14T13:42:52;36.40;;;19.08;;
41653;SDS011;68687;52.030;7.110;2023-12-14T13:45:18;37.45;;;20.67;;
41653;SDS011;68687;52.030;7.110;2023-12-14T13:47:43;38.40;;;19.67;;
41653;SDS011;68687;52.030;7.110;2023-12-14T13:50:08;37.58;;;21.05;;
41653;SDS011;68687;52.030;7.110;2023-12-14T13:52:37;33.83;;;18.75;;
41653;SDS011;68687;52.030;7.110;2023-12-14T13:55:02;33.20;;;18.58;;
41653;SDS011;68687;52.030;7.110;2023-12-14T13:57:28;38.67;;;21.08;;
41653;SDS011;68687;52.030;7.110;2023-12-14T13:59:53;40.30;;;22.77;;
41653;SDS011;68687;52.030;7.110;2023-12-14T14:02:19;40.75;;;20.25;;
41653;SDS011;68687;52.030;7.110;2023-12-14T14:04:44;37.60;;;20.20;;
41653;SDS011;68687;52.030;7.110;2023-12-14T14:07:09;34.47;;;19.08;;
41653;SDS011;68687;52.030;7.110;2023-12-14T14:09:35;31.58;;;18.33;;
41653;SDS011;68687;52.030;7.110;2023-12-14T14:12:00;34.50;;;18.90;;
41653;SDS011;68687;52.030;7.110;2023-12-14T14:14:25;36.90;;;19.50;;
41653;SDS011;68687;52.030;7.110;2023-12-14T14:16:51;36.38;;;19.27;;
41653;SDS011;68687;52.030;7.110;2023-12-14T14:19:17;33.13;;;18.63;;
41653;SDS011;68687;52.030;7.110;2023-12-14T14:21:42;35.47;;;17.98;;